createdAt,value
2023-02-19T00:09:38.503Z,1009
2023-02-19T00:39:40.483Z,761
2023-02-19T01:09:40.596Z,412
2023-02-19T01:39:42.471Z,597
2023-02-19T02:09:42.546Z,427
2023-02-19T02:39:43.777Z,415
2023-02-19T03:09:45.400Z,560
2023-02-19T03:39:46.945Z,400
2023-02-19T04:09:48.655Z,449
2023-02-19T04:39:50.119Z,431
2023-02-19T05:09:51.526Z,433
2023-02-19T05:39:52.581Z,414
2023-02-19T06:09:54.482Z,536
2023-02-19T06:39:56.501Z,395
2023-02-19T07:09:58.273Z,436
2023-02-19T07:39:59.951Z,426
2023-02-19T08:10:02.077Z,705
2023-02-19T08:40:04.924Z,426
2023-02-19T09:10:05.115Z,417
2023-02-19T09:40:07.149Z,628
2023-02-19T10:10:08.603Z,454
2023-02-19T10:40:08.743Z,452
2023-02-19T11:10:11.297Z,432
2023-02-19T11:40:11.634Z,519
2023-02-19T12:10:13.718Z,414
2023-02-19T12:40:15.219Z,412
2023-02-19T13:10:16.458Z,454
2023-02-19T13:40:17.383Z,398
2023-02-19T14:10:19.078Z,385
2023-02-19T14:40:20.296Z,451
2023-02-19T15:10:21.628Z,425
2023-02-19T15:40:25.319Z,402
2023-02-19T16:10:26.043Z,402
2023-02-19T16:40:27.507Z,420
2023-02-19T17:10:29.208Z,909
2023-02-19T17:40:30.309Z,426
2023-02-19T17:40:33.664Z,425
2023-02-19T18:10:43.107Z,419
2023-02-19T18:40:43.217Z,625
2023-02-19T19:10:44.243Z,5270
2023-02-19T19:40:46.014Z,4544
2023-02-19T20:10:46.193Z,1468
2023-02-19T20:40:47.673Z,15540
2023-02-19T21:10:48.057Z,12538
2023-02-19T21:40:48.576Z,10174
2023-02-19T22:10:50.056Z,11491
2023-02-19T22:40:51.916Z,7401
2023-02-19T23:10:53.914Z,10676
2023-02-19T23:40:54.938Z,7060
